createdAt,value
2022-09-07T00:02:15.424Z,3.40
2022-09-07T00:05:00.714Z,2.83
2022-09-07T00:07:46.170Z,3.55
2022-09-07T00:10:31.672Z,3.67
2022-09-07T00:13:16.946Z,2.63
2022-09-07T00:16:08.347Z,3.30
2022-09-07T00:19:00.119Z,3.30
2022-09-07T00:21:46.019Z,3.13
2022-09-07T00:24:31.219Z,3.95
2022-09-07T00:27:16.777Z,3.28
2022-09-07T00:30:02.141Z,3.28
2022-09-07T00:32:47.513Z,3.60
2022-09-07T00:35:32.857Z,3.38
2022-09-07T00:38:18.450Z,2.95
2022-09-07T00:41:04.295Z,2.50
2022-09-07T00:43:56.010Z,2.80
2022-09-07T00:46:41.460Z,2.33
2022-09-07T00:49:27.167Z,2.95
2022-09-07T00:52:14.245Z,2.83
2022-09-07T00:55:06.305Z,2.80
2022-09-07T00:57:55.744Z,3.28
2022-09-07T01:00:44.667Z,2.90
2022-09-07T01:03:34.972Z,3.33
2022-09-07T01:06:26.580Z,3.47
2022-09-07T01:09:16.188Z,3.40
2022-09-07T01:12:02.789Z,3.22
2022-09-07T01:14:51.789Z,3.22
2022-09-07T01:18:07.608Z,2.88
2022-09-07T01:21:24.973Z,2.85
2022-09-07T01:24:24.617Z,2.83
2022-09-07T01:27:19.431Z,4.00
2022-09-07T01:30:10.661Z,3.10
2022-09-07T01:33:06.669Z,3.33
2022-09-07T01:36:03.872Z,2.97
2022-09-07T01:39:02.113Z,3.30
2022-09-07T01:41:54.667Z,3.40
2022-09-07T01:45:01.408Z,3.28
2022-09-07T01:47:52.087Z,3.00
2022-09-07T01:50:44.797Z,3.20
2022-09-07T01:53:30.081Z,3.53
2022-09-07T01:56:32.480Z,3.30
2022-09-07T01:59:21.727Z,2.78
2022-09-07T02:02:16.676Z,4.40
2022-09-07T02:05:09.413Z,2.97
2022-09-07T02:08:04.735Z,3.47
2022-09-07T02:10:55.527Z,3.38
2022-09-07T02:13:56.139Z,2.92
2022-09-07T02:16:51.925Z,3.22
2022-09-07T02:19:42.765Z,2.97
2022-09-07T02:22:32.018Z,3.20
2022-09-07T02:25:28.507Z,2.92
2022-09-07T02:28:22.304Z,2.70
2022-09-07T02:31:08.345Z,3.17
2022-09-07T02:33:53.602Z,3.92
2022-09-07T02:36:44.383Z,3.55
2022-09-07T02:39:30.102Z,3.75
2022-09-07T02:42:15.190Z,3.53
2022-09-07T02:45:04.440Z,3.38
2022-09-07T02:47:50.157Z,3.88
2022-09-07T02:50:44.967Z,3.75
2022-09-07T02:53:58.758Z,3.38
2022-09-07T02:57:14.098Z,3.42
2022-09-07T03:00:15.380Z,3.30
2022-09-07T03:03:11.011Z,3.55
2022-09-07T03:06:03.538Z,3.47
2022-09-07T03:08:53.043Z,3.30
2022-09-07T03:11:39.004Z,3.67
2022-09-07T03:14:26.328Z,3.47
2022-09-07T03:17:13.064Z,3.92
2022-09-07T03:19:58.959Z,3.33
2022-09-07T03:22:46.667Z,3.22
2022-09-07T03:25:32.352Z,3.55
2022-09-07T03:28:17.653Z,3.28
2022-09-07T03:31:03.175Z,3.50
2022-09-07T03:33:48.760Z,3.47
2022-09-07T03:36:35.042Z,4.07
2022-09-07T03:39:23.695Z,3.83
2022-09-07T03:42:09.256Z,3.80
2022-09-07T03:44:54.425Z,3.33
2022-09-07T03:47:40.127Z,2.90
2022-09-07T03:50:25.651Z,3.80
2022-09-07T03:53:11.105Z,4.07
2022-09-07T03:56:02.130Z,3.90
2022-09-07T03:58:48.785Z,4.10
2022-09-07T04:01:34.678Z,3.72
2022-09-07T04:04:20.186Z,4.47
2022-09-07T04:07:06.763Z,3.85
2022-09-07T04:09:52.497Z,3.77
2022-09-07T04:12:37.946Z,4.28
2022-09-07T04:15:23.722Z,4.38
2022-09-07T04:18:09.011Z,3.85
2022-09-07T04:20:59.094Z,3.90
2022-09-07T04:23:45.503Z,3.75
2022-09-07T04:26:33.689Z,4.65
2022-09-07T04:29:19.014Z,3.20
2022-09-07T04:32:04.457Z,3.75
2022-09-07T04:34:51.955Z,4.20
2022-09-07T04:40:22.949Z,4.03
2022-09-07T04:43:09.675Z,4.72
2022-09-07T04:45:55.709Z,3.78
2022-09-07T04:48:41.040Z,3.90
2022-09-07T04:51:29.330Z,4.07
2022-09-07T04:54:14.815Z,3.90
2022-09-07T04:57:00.393Z,4.38
2022-09-07T04:59:45.713Z,5.00
2022-09-07T05:02:31.056Z,4.95
2022-09-07T05:05:16.693Z,4.50
2022-09-07T05:08:02.141Z,4.63
2022-09-07T05:10:56.858Z,4.10
2022-09-07T05:13:43.017Z,4.03
2022-09-07T05:16:30.365Z,4.28
2022-09-07T05:19:16.473Z,4.15
2022-09-07T05:22:02.401Z,5.45
2022-09-07T05:24:48.217Z,5.15
2022-09-07T05:27:33.767Z,5.20
2022-09-07T05:36:30.466Z,6.25
2022-09-07T05:39:16.230Z,6.90
2022-09-07T05:42:01.643Z,5.97
2022-09-07T05:44:46.968Z,6.78
2022-09-07T05:47:32.390Z,7.93
2022-09-07T05:50:17.876Z,6.65
2022-09-07T05:53:03.180Z,7.85
2022-09-07T05:55:51.715Z,7.25
2022-09-07T05:58:37.576Z,7.07
2022-09-07T06:01:23.213Z,7.40
2022-09-07T06:04:08.776Z,7.47
2022-09-07T06:13:05.398Z,7.70
2022-09-07T06:15:50.741Z,10.77
2022-09-07T06:18:39.347Z,9.13
2022-09-07T06:21:24.803Z,9.82
2022-09-07T06:24:10.228Z,7.90
2022-09-07T06:26:55.669Z,6.65
2022-09-07T06:29:40.980Z,6.65
2022-09-07T06:35:27.767Z,7.00
2022-09-07T06:38:13.329Z,6.85
2022-09-07T06:44:08.036Z,7.35
2022-09-07T06:49:46.997Z,8.35
2022-09-07T06:55:44.908Z,6.88
2022-09-07T06:58:30.500Z,8.27
2022-09-07T07:01:20.316Z,9.57
2022-09-07T07:04:05.823Z,10.05
2022-09-07T07:06:51.147Z,9.85
2022-09-07T07:09:36.474Z,9.82
2022-09-07T07:15:06.730Z,10.68
2022-09-07T07:17:58.974Z,10.05
2022-09-07T07:20:47.845Z,10.05
2022-09-07T07:23:34.480Z,11.18
2022-09-07T07:26:23.760Z,12.55
2022-09-07T07:29:08.875Z,10.35
2022-09-07T07:31:54.474Z,10.70
2022-09-07T07:34:39.792Z,10.95
2022-09-07T07:37:28.181Z,8.52
2022-09-07T07:40:15.798Z,9.32
2022-09-07T07:43:03.065Z,9.57
2022-09-07T07:45:55.730Z,9.18
2022-09-07T07:48:41.958Z,8.65
2022-09-07T07:51:27.612Z,8.57
2022-09-07T07:54:12.759Z,8.32
2022-09-07T07:56:58.080Z,9.43
2022-09-07T07:59:43.360Z,7.60
2022-09-07T08:02:28.751Z,8.20
2022-09-07T08:05:14.253Z,7.38
2022-09-07T08:07:59.489Z,7.45
2022-09-07T08:10:47.319Z,8.20
2022-09-07T08:13:33.822Z,7.05
2022-09-07T08:16:19.586Z,7.07
2022-09-07T08:19:05.813Z,6.82
2022-09-07T08:21:51.192Z,7.65
2022-09-07T08:24:36.666Z,7.03
2022-09-07T08:27:22.012Z,8.15
2022-09-07T08:30:08.583Z,7.97
2022-09-07T08:32:53.867Z,7.10
2022-09-07T08:35:39.197Z,7.20
2022-09-07T08:38:25.336Z,6.95
2022-09-07T08:41:48.866Z,7.15
2022-09-07T08:44:37.572Z,7.55
2022-09-07T08:47:38.970Z,7.43
2022-09-07T08:50:29.561Z,7.20
2022-09-07T08:53:17.860Z,7.60
2022-09-07T08:56:12.275Z,5.28
2022-09-07T08:59:00.432Z,5.55
2022-09-07T09:02:27.053Z,6.72
2022-09-07T09:08:06.946Z,6.75
2022-09-07T09:11:05.983Z,6.70
2022-09-07T09:17:30.758Z,6.55
2022-09-07T09:20:24.021Z,6.38
2022-09-07T09:23:13.117Z,6.30
2022-09-07T09:26:13.380Z,6.88
2022-09-07T09:29:11.453Z,6.88
2022-09-07T09:31:57.041Z,5.60
2022-09-07T09:35:00.668Z,5.63
2022-09-07T09:37:46.536Z,5.97
2022-09-07T09:40:37.079Z,5.50
2022-09-07T09:43:26.009Z,5.65
2022-09-07T09:46:33.463Z,5.38
2022-09-07T09:49:23.909Z,7.18
2022-09-07T09:52:41.791Z,6.68
2022-09-07T09:55:35.854Z,9.02
2022-09-07T10:04:44.976Z,6.78
2022-09-07T10:07:31.917Z,6.97
2022-09-07T10:10:36.425Z,6.57
2022-09-07T10:13:26.890Z,5.93
2022-09-07T10:16:12.543Z,5.88
2022-09-07T10:18:59.520Z,5.90
2022-09-07T10:21:45.579Z,6.07
2022-09-07T10:24:39.662Z,6.05
2022-09-07T10:27:34.841Z,6.10
2022-09-07T10:30:20.369Z,6.32
2022-09-07T10:33:18.806Z,6.00
2022-09-07T10:36:24.542Z,6.05
2022-09-07T10:39:35.781Z,5.78
2022-09-07T10:42:24.260Z,5.20
2022-09-07T10:45:31.622Z,5.10
2022-09-07T10:48:32.663Z,5.55
2022-09-07T10:51:24.502Z,6.38
2022-09-07T10:54:42.267Z,6.40
2022-09-07T10:58:05.235Z,5.63
2022-09-07T11:00:53.928Z,4.95
2022-09-07T11:03:48.956Z,5.30
2022-09-07T11:06:49.155Z,5.65
2022-09-07T11:10:05.532Z,4.95
2022-09-07T11:12:54.133Z,4.70
2022-09-07T11:16:05.607Z,5.85
2022-09-07T11:19:35.008Z,4.95
2022-09-07T11:22:25.527Z,5.28
2022-09-07T11:25:31.359Z,5.43
2022-09-07T11:28:23.246Z,5.63
2022-09-07T11:31:22.095Z,5.68
2022-09-07T11:34:25.210Z,5.57
2022-09-07T11:37:18.889Z,5.75
2022-09-07T11:40:14.285Z,5.45
2022-09-07T11:43:18.284Z,5.05
2022-09-07T11:46:10.196Z,5.55
2022-09-07T11:48:56.700Z,5.10
2022-09-07T11:51:54.092Z,4.88
2022-09-07T11:54:42.587Z,5.18
2022-09-07T11:57:49.002Z,4.95
2022-09-07T12:01:05.408Z,5.38
2022-09-07T12:04:03.026Z,5.13
2022-09-07T12:07:18.118Z,5.18
2022-09-07T12:10:39.082Z,5.15
2022-09-07T12:13:55.543Z,5.28
2022-09-07T12:16:58.181Z,5.03
2022-09-07T12:19:44.168Z,5.57
2022-09-07T12:22:29.734Z,4.93
2022-09-07T12:25:18.566Z,5.05
2022-09-07T12:28:04.178Z,5.65
2022-09-07T12:31:12.526Z,5.55
2022-09-07T12:34:33.515Z,4.93
2022-09-07T12:37:27.494Z,5.20
2022-09-07T12:40:32.359Z,5.25
2022-09-07T12:43:17.880Z,4.93
2022-09-07T12:46:03.724Z,4.88
2022-09-07T12:49:04.727Z,5.03
2022-09-07T12:52:16.759Z,4.95
2022-09-07T12:55:29.538Z,4.03
2022-09-07T12:58:31.503Z,3.83
2022-09-07T13:01:35.796Z,4.57
2022-09-07T13:04:41.168Z,4.03
2022-09-07T13:07:33.852Z,3.72
2022-09-07T13:10:35.995Z,4.15
2022-09-07T13:19:46.005Z,4.15
2022-09-07T13:22:31.417Z,3.90
2022-09-07T13:25:36.923Z,4.95
2022-09-07T13:28:23.749Z,3.90
2022-09-07T13:31:22.083Z,4.22
2022-09-07T13:34:36.104Z,3.80
2022-09-07T13:37:26.307Z,3.97
2022-09-07T13:40:18.015Z,4.38
2022-09-07T13:43:04.351Z,4.10
2022-09-07T13:45:55.580Z,3.80
2022-09-07T13:48:51.436Z,4.30
2022-09-07T13:51:47.738Z,3.92
2022-09-07T13:54:48.540Z,3.78
2022-09-07T13:58:05.365Z,2.55
2022-09-07T14:00:55.318Z,3.13
2022-09-07T14:03:57.184Z,2.88
2022-09-07T14:06:42.535Z,3.05
2022-09-07T14:09:27.793Z,2.80
2022-09-07T14:12:21.467Z,2.60
2022-09-07T14:15:19.206Z,2.63
2022-09-07T14:18:11.224Z,2.58
2022-09-07T14:20:58.693Z,2.55
2022-09-07T14:23:50.723Z,3.15
2022-09-07T14:26:36.007Z,2.45
2022-09-07T14:29:24.110Z,3.15
2022-09-07T14:32:13.336Z,3.10
2022-09-07T14:34:58.689Z,2.92
2022-09-07T14:37:46.178Z,2.55
2022-09-07T14:40:31.634Z,2.65
2022-09-07T14:43:33.044Z,2.40
2022-09-07T14:46:26.914Z,2.30
2022-09-07T14:49:20.580Z,3.17
2022-09-07T14:52:06.152Z,3.47
2022-09-07T14:54:52.924Z,4.00
2022-09-07T14:57:38.355Z,3.97
2022-09-07T15:00:31.439Z,3.88
2022-09-07T15:03:38.380Z,4.00
2022-09-07T15:09:40.452Z,4.18
2022-09-07T15:12:38.108Z,5.00
2022-09-07T15:15:33.862Z,5.07
2022-09-07T15:18:51.774Z,5.05
2022-09-07T15:21:37.687Z,5.05
2022-09-07T15:24:23.006Z,4.68
2022-09-07T15:27:27.138Z,4.18
2022-09-07T15:30:12.762Z,5.13
2022-09-07T15:32:58.299Z,4.90
2022-09-07T15:35:43.636Z,4.57
2022-09-07T15:41:34.842Z,4.72
2022-09-07T15:44:25.163Z,4.90
2022-09-07T15:50:17.554Z,4.85
2022-09-07T15:53:03.154Z,5.30
2022-09-07T15:55:54.898Z,5.15
2022-09-07T15:58:43.178Z,4.65
2022-09-07T16:04:33.714Z,5.13
2022-09-07T16:07:19.762Z,5.63
2022-09-07T16:10:06.098Z,5.63
2022-09-07T16:15:59.988Z,5.20
2022-09-07T16:18:47.271Z,5.50
2022-09-07T16:21:33.087Z,4.65
2022-09-07T16:24:18.395Z,5.28
2022-09-07T16:27:03.750Z,5.25
2022-09-07T16:29:49.254Z,5.03
2022-09-07T16:32:50.187Z,5.20
2022-09-07T16:35:35.842Z,5.18
2022-09-07T16:41:29.452Z,5.80
2022-09-07T16:44:15.055Z,5.72
2022-09-07T16:47:00.851Z,6.45
2022-09-07T16:49:46.478Z,5.95
2022-09-07T16:52:34.526Z,4.93
2022-09-07T16:55:19.966Z,5.47
2022-09-07T17:01:13.563Z,4.65
2022-09-07T17:03:59.510Z,4.63
2022-09-07T17:06:44.900Z,5.07
2022-09-07T17:09:30.579Z,4.95
2022-09-07T17:12:15.896Z,4.30
2022-09-07T17:15:01.191Z,4.47
2022-09-07T17:17:46.539Z,3.95
2022-09-07T17:20:32.006Z,4.20
2022-09-07T17:23:17.433Z,4.40
2022-09-07T17:26:13.881Z,4.45
2022-09-07T17:29:00.908Z,4.10
2022-09-07T17:34:52.107Z,4.18
2022-09-07T17:37:37.433Z,4.80
2022-09-07T17:40:23.577Z,4.57
2022-09-07T17:46:20.904Z,4.82
2022-09-07T17:49:10.213Z,5.50
2022-09-07T17:51:58.481Z,5.00
2022-09-07T17:54:44.028Z,4.60
2022-09-07T17:57:30.823Z,5.00
2022-09-07T18:00:16.234Z,4.23
2022-09-07T18:03:03.504Z,4.63
2022-09-07T18:08:38.619Z,5.10
2022-09-07T18:14:30.170Z,4.68
2022-09-07T18:17:15.388Z,4.43
2022-09-07T18:20:01.023Z,5.43
2022-09-07T18:22:46.424Z,4.55
2022-09-07T18:25:31.740Z,5.30
2022-09-07T18:31:25.055Z,5.60
2022-09-07T18:34:11.782Z,5.38
2022-09-07T18:36:58.562Z,4.88
2022-09-07T18:39:43.952Z,5.40
2022-09-07T18:42:30.290Z,5.47
2022-09-07T18:45:31.222Z,5.05
2022-09-07T18:48:16.425Z,4.88
2022-09-07T18:51:02.422Z,5.07
2022-09-07T18:53:47.992Z,5.47
2022-09-07T18:56:33.384Z,4.80
2022-09-07T18:59:18.669Z,5.15
2022-09-07T19:02:06.357Z,4.65
2022-09-07T19:07:59.753Z,5.10
2022-09-07T19:10:46.480Z,4.78
2022-09-07T19:13:31.917Z,4.60
2022-09-07T19:16:19.458Z,5.10
2022-09-07T19:19:06.958Z,5.28
2022-09-07T19:24:38.452Z,4.60
2022-09-07T19:27:23.601Z,4.90
2022-09-07T19:30:09.711Z,4.80
2022-09-07T19:32:54.956Z,4.85
2022-09-07T19:35:40.134Z,4.82
2022-09-07T19:38:25.459Z,4.72
2022-09-07T19:41:14.096Z,5.40
2022-09-07T19:44:00.255Z,5.78
2022-09-07T19:46:45.926Z,5.47
2022-09-07T19:49:31.818Z,5.38
2022-09-07T19:52:17.188Z,5.55
2022-09-07T19:55:03.998Z,4.85
2022-09-07T19:57:51.331Z,4.65
2022-09-07T20:00:39.223Z,4.85
2022-09-07T20:03:24.794Z,5.40
2022-09-07T20:06:12.810Z,5.13
2022-09-07T20:09:00.113Z,4.97
2022-09-07T20:11:47.499Z,4.55
2022-09-07T20:14:33.216Z,4.43
2022-09-07T20:17:18.527Z,4.30
2022-09-07T20:20:05.435Z,4.82
2022-09-07T20:22:51.321Z,4.68
2022-09-07T20:25:36.767Z,4.60
2022-09-07T20:28:21.965Z,4.38
2022-09-07T20:31:10.296Z,4.40
2022-09-07T20:33:56.894Z,5.28
2022-09-07T20:36:42.227Z,4.75
2022-09-07T20:39:27.556Z,5.30
2022-09-07T20:42:13.086Z,5.43
2022-09-07T20:44:58.278Z,4.72
2022-09-07T20:47:44.769Z,4.38
2022-09-07T20:50:30.264Z,4.80
2022-09-07T20:53:16.872Z,5.80
2022-09-07T20:56:03.685Z,5.60
2022-09-07T20:58:53.657Z,5.33
2022-09-07T21:01:39.214Z,5.20
2022-09-07T21:04:26.422Z,4.90
2022-09-07T21:07:12.110Z,4.82
2022-09-07T21:09:57.339Z,5.32
2022-09-07T21:12:42.956Z,5.57
2022-09-07T21:15:29.334Z,4.97
2022-09-07T21:18:16.506Z,5.35
2022-09-07T21:21:20.093Z,5.10
2022-09-07T21:24:07.132Z,6.35
2022-09-07T21:26:52.680Z,5.50
2022-09-07T21:29:37.934Z,5.53
2022-09-07T21:32:23.570Z,5.28
2022-09-07T21:35:10.177Z,4.93
2022-09-07T21:37:55.915Z,5.40
2022-09-07T21:40:41.518Z,5.75
2022-09-07T21:43:27.319Z,5.50
2022-09-07T21:46:15.980Z,5.20
2022-09-07T21:49:02.125Z,5.95
2022-09-07T21:51:47.703Z,4.82
2022-09-07T21:54:33.202Z,5.43
2022-09-07T21:57:18.603Z,5.15
2022-09-07T22:00:05.568Z,5.28
2022-09-07T22:02:53.927Z,5.25
2022-09-07T22:05:39.651Z,5.18
2022-09-07T22:08:24.970Z,5.28
2022-09-07T22:11:13.578Z,5.03
2022-09-07T22:14:01.946Z,5.05
2022-09-07T22:16:47.629Z,4.80
2022-09-07T22:19:33.159Z,4.80
2022-09-07T22:22:18.836Z,4.95
2022-09-07T22:25:05.407Z,4.85
2022-09-07T22:27:50.886Z,5.30
2022-09-07T22:30:36.209Z,5.82
2022-09-07T22:33:22.027Z,4.85
2022-09-07T22:36:12.640Z,5.38
2022-09-07T22:39:00.830Z,4.43
2022-09-07T22:41:47.471Z,4.80
2022-09-07T22:47:36.123Z,5.30
2022-09-07T22:50:21.596Z,4.88
2022-09-07T22:53:06.883Z,5.15
2022-09-07T22:55:52.562Z,5.15
2022-09-07T22:58:38.624Z,4.05
2022-09-07T23:01:24.756Z,4.95
2022-09-07T23:04:11.175Z,4.50
2022-09-07T23:06:56.920Z,4.70
2022-09-07T23:09:42.281Z,5.20
2022-09-07T23:12:28.025Z,4.80
2022-09-07T23:15:13.226Z,4.20
2022-09-07T23:17:58.872Z,4.20
2022-09-07T23:20:44.469Z,3.47
2022-09-07T23:23:30.705Z,4.53
2022-09-07T23:26:15.913Z,5.22
2022-09-07T23:29:04.528Z,5.05
2022-09-07T23:31:50.057Z,4.60
2022-09-07T23:34:35.730Z,4.68
2022-09-07T23:37:21.111Z,4.43
2022-09-07T23:40:08.612Z,4.90
2022-09-07T23:42:54.220Z,4.63
2022-09-07T23:45:39.681Z,3.80
2022-09-07T23:48:25.731Z,4.38
2022-09-07T23:51:12.316Z,4.50
2022-09-07T23:53:57.676Z,4.20
2022-09-07T23:56:43.248Z,4.60
2022-09-07T23:59:28.432Z,4.32
